Time;durP1;ratioP1;P1;durP2;ratioP2;P2;SDS_P1;SDS_P2;PMS_P1;PMS_P2;Temp;Humidity;BMP_temperature;BMP_pressure;BME280_temperature;BME280_humidity;BME280_pressure;Samples;Min_cycle;Max_cycle;Signal;HPM_P1;HPM_P2
2022/08/13 00:02:19;;;;;;;2.60;2.17;;;;;;;18.31;62.23;100612.00;5029014;28;20366;-79
2022/08/13 00:05:06;;;;;;;7.47;1.85;;;;;;;18.27;62.25;100608.06;5042384;28;20026;-80
2022/08/13 00:07:32;;;;;;;2.35;2.10;;;;;;;18.20;62.29;100608.78;5011132;28;20060;-80
2022/08/13 00:09:59;;;;;;;3.47;1.83;;;;;;;18.19;62.37;100611.66;4990336;28;20029;-80
2022/08/13 00:15:16;;;;;;;3.17;1.85;;;;;;;18.03;62.71;100605.50;5023181;28;20100;-80
2022/08/13 00:17:43;;;;;;;3.45;1.92;;;;;;;18.07;62.61;100605.97;5027528;28;20117;-79
2022/08/13 00:20:11;;;;;;;3.63;1.83;;;;;;;18.20;62.08;100611.47;5056226;28;20033;-80
2022/08/13 00:22:38;;;;;;;3.85;2.50;;;;;;;18.24;61.96;100609.25;5034594;28;20056;-79
2022/08/13 00:25:07;;;;;;;5.03;2.13;;;;;;;18.19;61.88;100598.28;5030377;28;20146;-80
2022/08/13 00:27:34;;;;;;;4.10;2.25;;;;;;;18.15;61.80;100599.69;5051036;28;20830;-78
2022/08/13 00:30:01;;;;;;;2.58;2.30;;;;;;;18.10;62.06;100603.75;5029852;28;20034;-79
2022/08/13 00:32:29;;;;;;;3.50;1.80;;;;;;;18.02;62.15;100601.19;5019756;28;20479;-79
2022/08/13 00:34:59;;;;;;;5.13;2.13;;;;;;;18.03;62.10;100602.84;5012775;28;20029;-80
2022/08/13 00:37:26;;;;;;;4.40;2.22;;;;;;;18.05;62.04;100599.97;5043707;28;20399;-79
2022/08/13 00:39:55;;;;;;;4.30;1.98;;;;;;;18.03;61.99;100600.16;5008329;28;20079;-79
2022/08/13 00:42:23;;;;;;;2.35;1.92;;;;;;;18.00;62.09;100597.06;5014987;28;20034;-79
2022/08/13 00:44:49;;;;;;;5.75;1.95;;;;;;;17.99;62.03;100590.88;5030667;28;20042;-79
2022/08/13 00:50:00;;;;;;;10.73;3.13;;;;;;;18.02;62.03;100595.84;5043539;28;20458;-79
2022/08/13 00:52:31;;;;;;;3.70;2.25;;;;;;;17.91;62.23;100590.97;5044293;28;20478;-78
2022/08/13 00:55:00;;;;;;;3.22;2.15;;;;;;;17.82;62.48;100591.09;5029440;28;20036;-79
2022/08/13 00:57:28;;;;;;;2.30;1.80;;;;;;;17.80;62.57;100590.47;5008903;28;20037;-79
2022/08/13 00:59:55;;;;;;;2.45;2.05;;;;;;;17.76;62.73;100591.03;5039067;28;20507;-79
2022/08/13 01:02:23;;;;;;;4.32;2.50;;;;;;;17.69;62.77;100583.78;5014624;28;20045;-80
2022/08/13 01:04:49;;;;;;;2.47;2.00;;;;;;;17.64;63.14;100588.84;5036916;28;20036;-79
2022/08/13 01:07:15;;;;;;;4.20;2.53;;;;;;;17.65;63.03;100585.16;5021582;28;20034;-79
2022/08/13 01:09:41;;;;;;;34.83;3.05;;;;;;;17.68;62.84;100582.09;5022610;28;20029;-78
2022/08/13 01:12:09;;;;;;;3.03;2.22;;;;;;;17.81;62.39;100585.94;5023051;28;20092;-78
2022/08/13 01:14:37;;;;;;;3.92;2.35;;;;;;;17.85;62.14;100579.22;5050593;28;20076;-79
2022/08/13 01:17:03;;;;;;;6.03;2.42;;;;;;;17.93;62.03;100572.91;5020635;28;20035;-78
2022/08/13 01:19:31;;;;;;;9.15;2.15;;;;;;;18.02;61.46;100584.31;5020327;28;20200;-78
2022/08/13 01:21:59;;;;;;;4.72;2.00;;;;;;;18.01;61.35;100575.47;5029439;28;20026;-80
2022/08/13 01:24:26;;;;;;;6.07;2.00;;;;;;;17.95;61.76;100573.53;5043465;28;20053;-79
2022/08/13 01:26:52;;;;;;;4.85;2.00;;;;;;;17.97;61.81;100561.66;5041391;28;20028;-79
2022/08/13 01:29:20;;;;;;;5.72;1.95;;;;;;;17.95;61.56;100569.03;5041377;28;20038;-80
2022/08/13 01:31:47;;;;;;;2.78;1.98;;;;;;;17.83;62.09;100568.72;5001209;28;20033;-80
2022/08/13 01:34:16;;;;;;;6.13;1.73;;;;;;;17.71;62.41;100575.56;4948736;28;20037;-83
2022/08/13 01:36:43;;;;;;;5.30;2.42;;;;;;;17.58;62.90;100568.22;5017355;28;20031;-79
2022/08/13 01:39:10;;;;;;;4.47;2.03;;;;;;;17.47;63.31;100567.69;5021579;28;20160;-80
2022/08/13 01:41:36;;;;;;;3.17;2.00;;;;;;;17.38;63.27;100562.63;5031547;28;20037;-79
2022/08/13 01:44:06;;;;;;;4.60;1.75;;;;;;;17.32;63.79;100561.53;5035151;28;20160;-79
2022/08/13 01:52:06;;;;;;;4.20;1.60;;;;;;;17.53;62.80;100568.78;4996722;28;20041;-79
2022/08/13 01:54:34;;;;;;;2.80;1.60;;;;;;;17.58;62.60;100562.88;5024120;28;20034;-79
2022/08/13 01:57:03;;;;;;;6.47;1.40;;;;;;;17.60;62.27;100558.16;5011129;28;20582;-77
2022/08/13 01:59:34;;;;;;;3.25;1.80;;;;;;;17.63;62.18;100565.00;4998461;28;20108;-80
2022/08/13 02:02:01;;;;;;;3.63;1.80;;;;;;;17.58;62.22;100562.88;5001592;28;20034;-80
2022/08/13 02:04:28;;;;;;;3.22;1.55;;;;;;;17.52;62.27;100558.28;5026861;28;20037;-78
2022/08/13 02:06:54;;;;;;;3.20;1.65;;;;;;;17.50;62.56;100561.16;4994143;28;20503;-79
2022/08/13 02:09:23;;;;;;;3.45;1.83;;;;;;;17.48;62.39;100556.00;5019874;28;20034;-78
2022/08/13 02:11:49;;;;;;;2.42;1.95;;;;;;;17.50;62.44;100563.81;5019239;28;20038;-79
2022/08/13 02:14:15;;;;;;;3.97;1.95;;;;;;;17.47;62.61;100559.66;5025103;28;20109;-78
2022/08/13 02:16:42;;;;;;;3.38;1.77;;;;;;;17.47;62.63;100557.00;5022230;28;20034;-78
2022/08/13 02:19:08;;;;;;;3.28;2.20;;;;;;;17.46;62.55;100559.84;5019889;28;20507;-78
2022/08/13 02:21:38;;;;;;;2.65;2.22;;;;;;;17.45;62.48;100558.19;4985874;28;20061;-77
2022/08/13 02:24:09;;;;;;;4.05;1.80;;;;;;;17.42;62.35;100554.06;5011666;28;20033;-78
2022/08/13 02:26:38;;;;;;;3.80;2.20;;;;;;;17.38;62.57;100551.94;5008770;28;20037;-78
2022/08/13 02:29:05;;;;;;;3.95;2.00;;;;;;;17.40;62.58;100548.06;5010079;28;20496;-78
2022/08/13 02:31:32;;;;;;;3.38;1.85;;;;;;;17.40;62.57;100548.06;5035772;28;20041;-78
2022/08/13 02:33:58;;;;;;;3.28;1.67;;;;;;;17.42;62.55;100542.53;5010165;28;20083;-79
2022/08/13 02:36:25;;;;;;;2.00;1.80;;;;;;;17.43;62.46;100546.88;5002316;28;20088;-80
2022/08/13 02:38:54;;;;;;;5.10;1.50;;;;;;;17.47;62.35;100551.66;5001936;28;20022;-79
2022/08/13 02:44:16;;;;;;;2.97;1.50;;;;;;;17.48;62.22;100542.63;5015098;28;20076;-79
2022/08/13 02:46:49;;;;;;;2.83;1.77;;;;;;;17.51;62.27;100541.41;5026767;28;20096;-78
2022/08/13 02:49:15;;;;;;;6.53;2.92;;;;;;;17.53;62.28;100533.22;5024656;28;20053;-80
2022/08/13 02:51:42;;;;;;;3.20;1.83;;;;;;;17.56;61.92;100540.84;5025609;28;20506;-79
2022/08/13 02:54:08;;;;;;;5.22;1.73;;;;;;;17.56;61.61;100533.66;5006694;28;20030;-79
2022/08/13 02:56:38;;;;;;;7.53;1.83;;;;;;;17.53;61.98;100531.38;5023724;28;20040;-77
2022/08/13 02:59:10;;;;;;;6.70;1.73;;;;;;;17.51;61.86;100533.41;5025872;28;20034;-79
2022/08/13 03:01:40;;;;;;;4.63;2.00;;;;;;;17.57;61.54;100529.13;5024698;28;20046;-77
2022/08/13 03:04:08;;;;;;;6.13;2.13;;;;;;;17.60;61.56;100529.59;5007463;28;20034;-79
2022/08/13 03:06:35;;;;;;;3.83;1.73;;;;;;;17.58;61.75;100531.63;5005169;28;20061;-78
2022/08/13 03:09:02;;;;;;;4.10;1.80;;;;;;;17.58;61.60;100528.13;5009634;28;20036;-79
2022/08/13 03:11:29;;;;;;;6.25;1.95;;;;;;;17.59;61.66;100525.28;5006641;28;20034;-78
2022/08/13 03:14:07;;;;;;;3.50;1.65;;;;;;;17.63;61.61;100523.03;5040609;28;20034;-78
2022/08/13 03:16:34;;;;;;;5.28;1.95;;;;;;;17.61;61.51;100520.53;5023209;28;20037;-78
2022/08/13 03:19:00;;;;;;;2.30;1.50;;;;;;;17.61;61.55;100525.91;5028205;28;20038;-78
2022/08/13 03:21:38;;;;;;;5.57;2.38;;;;;;;17.55;61.79;100523.97;4991688;28;20068;-77
2022/08/13 03:24:05;;;;;;;2.67;1.48;;;;;;;17.45;62.05;100516.28;5040923;28;20029;-79
2022/08/13 03:26:33;;;;;;;3.40;2.05;;;;;;;17.35;62.34;100511.25;5033384;28;20133;-78
2022/08/13 03:29:00;;;;;;;1.85;1.52;;;;;;;17.14;63.16;100514.66;5013247;28;20042;-78
2022/08/13 03:31:27;;;;;;;6.95;1.73;;;;;;;16.98;64.05;100511.16;5007531;28;20038;-79
2022/08/13 03:33:54;;;;;;;7.45;1.90;;;;;;;16.85;64.39;100511.81;5028916;28;20455;-78
2022/08/13 03:36:21;;;;;;;2.28;1.65;;;;;;;16.73;64.80;100518.63;4996246;28;20029;-77
2022/08/13 03:38:47;;;;;;;7.53;2.05;;;;;;;16.64;65.21;100514.38;4993041;28;20135;-79
2022/08/13 03:41:14;;;;;;;4.43;1.80;;;;;;;16.56;65.59;100507.28;5021534;28;20030;-78
2022/08/13 03:43:47;;;;;;;4.30;1.98;;;;;;;16.53;65.90;100513.81;5016485;28;20384;-79
2022/08/13 03:46:24;;;;;;;4.95;1.80;;;;;;;16.49;66.12;100507.19;5039573;28;20035;-78
2022/08/13 03:48:51;;;;;;;4.80;2.50;;;;;;;16.44;66.22;100510.41;5029821;28;20542;-78
2022/08/13 03:51:20;;;;;;;10.63;1.88;;;;;;;16.47;66.20;100507.38;5026740;28;20072;-78
2022/08/13 03:53:46;;;;;;;3.00;2.17;;;;;;;16.44;66.33;100507.72;5016674;28;20351;-80
2022/08/13 03:56:15;;;;;;;1.83;1.73;;;;;;;16.45;66.47;100506.72;5012658;28;20507;-78
2022/08/13 03:58:40;;;;;;;7.78;2.53;;;;;;;16.39;66.55;100504.78;5029591;28;20064;-78
2022/08/13 04:01:07;;;;;;;4.25;1.90;;;;;;;16.33;66.94;100495.69;5017583;28;20081;-78
2022/08/13 04:03:36;;;;;;;4.20;1.90;;;;;;;16.30;67.14;100496.03;5026792;28;20116;-77
2022/08/13 04:06:06;;;;;;;3.47;2.00;;;;;;;16.29;67.08;100498.88;5015908;28;20040;-78
2022/08/13 04:08:37;;;;;;;7.22;2.95;;;;;;;16.30;67.06;100490.69;5045669;28;20030;-78
2022/08/13 04:11:09;;;;;;;2.35;1.65;;;;;;;16.37;66.90;100494.28;5011886;28;20403;-78
2022/08/13 04:13:36;;;;;;;4.63;1.65;;;;;;;16.43;66.52;100491.91;5041343;28;20095;-77
2022/08/13 04:16:07;;;;;;;3.08;2.08;;;;;;;16.46;66.56;100489.72;5027794;28;20063;-78
2022/08/13 04:18:37;;;;;;;3.03;1.92;;;;;;;16.46;66.45;100488.88;5042075;28;20054;-77
2022/08/13 04:21:06;;;;;;;4.78;1.95;;;;;;;16.40;66.71;100489.59;5021085;28;20026;-78
2022/08/13 04:23:34;;;;;;;3.38;2.10;;;;;;;16.34;67.26;100491.19;5020560;28;20049;-77
2022/08/13 04:26:00;;;;;;;3.97;1.90;;;;;;;16.27;67.23;100485.72;5037251;28;20042;-78
2022/08/13 04:28:26;;;;;;;2.97;1.67;;;;;;;16.19;67.66;100477.81;5023567;28;20029;-78
2022/08/13 04:30:52;;;;;;;4.28;1.65;;;;;;;16.21;67.63;100476.59;5041750;28;20041;-78
2022/08/13 04:33:18;;;;;;;3.50;2.00;;;;;;;16.27;67.54;100476.88;5026423;28;20076;-78
2022/08/13 04:35:45;;;;;;;3.55;1.27;;;;;;;16.34;67.29;100483.19;5007670;28;20700;-78
2022/08/13 04:38:13;;;;;;;2.42;1.70;;;;;;;16.41;67.10;100478.75;5009218;28;20037;-78
2022/08/13 04:40:41;;;;;;;1.52;1.23;;;;;;;16.42;66.92;100480.41;5027593;28;20515;-78
2022/08/13 04:43:10;;;;;;;2.78;1.60;;;;;;;16.38;67.36;100476.47;5039602;28;20038;-78
2022/08/13 04:45:38;;;;;;;7.05;1.80;;;;;;;16.46;66.94;100472.88;5015111;28;20034;-78
2022/08/13 04:48:09;;;;;;;2.55;1.60;;;;;;;16.54;66.85;100469.28;5014703;28;20103;-78
2022/08/13 04:50:36;;;;;;;4.05;1.85;;;;;;;16.58;66.64;100466.06;5060466;28;20044;-79
2022/08/13 04:53:09;;;;;;;5.15;1.60;;;;;;;16.58;66.37;100466.06;5046969;28;20042;-80
2022/08/13 04:55:37;;;;;;;6.47;1.90;;;;;;;16.54;66.32;100462.13;5004601;28;20096;-79
2022/08/13 04:58:08;;;;;;;2.33;1.73;;;;;;;16.51;66.50;100464.31;5034637;28;20038;-78
2022/08/13 05:00:34;;;;;;;7.03;2.17;;;;;;;16.49;66.78;100467.16;5014447;28;20042;-78
2022/08/13 05:03:11;;;;;;;4.18;2.13;;;;;;;16.49;66.90;100464.50;5032603;28;20128;-79
2022/08/13 05:05:37;;;;;;;3.85;2.10;;;;;;;16.51;67.06;100467.00;5034461;28;20037;-78
2022/08/13 05:08:07;;;;;;;3.17;2.00;;;;;;;16.55;66.86;100462.94;5035458;28;20037;-78
2022/08/13 05:10:37;;;;;;;4.47;2.30;;;;;;;16.60;67.05;100469.38;5025488;28;20029;-78
2022/08/13 05:13:19;;;;;;;5.65;2.75;;;;;;;16.57;67.09;100460.91;5046695;28;20120;-79
2022/08/13 05:15:45;;;;;;;5.47;2.08;;;;;;;16.45;67.65;100460.56;5049769;28;20479;-79
2022/08/13 05:18:10;;;;;;;7.57;1.92;;;;;;;16.39;68.12;100464.75;5024044;28;20095;-79
2022/08/13 05:20:39;;;;;;;5.55;2.20;;;;;;;16.34;68.60;100469.84;5026004;28;20161;-78
2022/08/13 05:23:09;;;;;;;3.90;2.42;;;;;;;16.40;68.18;100473.59;5034451;28;20037;-77
2022/08/13 05:25:35;;;;;;;2.75;1.88;;;;;;;16.46;68.09;100462.19;5036302;28;20041;-77
2022/08/13 05:28:01;;;;;;;2.15;1.83;;;;;;;16.58;67.80;100465.25;5018026;28;20057;-77
2022/08/13 05:30:27;;;;;;;7.07;1.80;;;;;;;16.64;67.65;100464.53;5031527;28;20044;-78
2022/08/13 05:32:57;;;;;;;3.15;1.67;;;;;;;16.68;67.74;100465.78;5032802;28;20030;-77
2022/08/13 05:35:25;;;;;;;3.25;2.13;;;;;;;16.70;67.52;100465.63;5020002;28;20025;-77
2022/08/13 05:37:52;;;;;;;3.20;1.92;;;;;;;16.71;67.51;100465.44;5047892;28;20044;-76
2022/08/13 05:40:18;;;;;;;1.85;1.70;;;;;;;16.77;67.73;100473.72;5047043;28;20036;-77
2022/08/13 05:42:43;;;;;;;3.58;1.95;;;;;;;16.66;68.15;100469.69;5061902;28;20033;-78
2022/08/13 05:45:10;;;;;;;2.60;1.77;;;;;;;16.52;69.18;100468.63;5055955;28;20487;-79
2022/08/13 05:47:36;;;;;;;2.65;2.03;;;;;;;16.39;69.50;100470.09;5028047;28;20510;-78
2022/08/13 05:50:13;;;;;;;2.00;1.58;;;;;;;16.32;70.24;100471.84;5031526;28;20083;-78
2022/08/13 05:52:40;;;;;;;3.55;1.50;;;;;;;16.33;70.37;100473.50;5044524;28;20048;-80
2022/08/13 05:55:12;;;;;;;4.22;1.63;;;;;;;16.32;70.47;100472.69;5038754;28;20034;-78
2022/08/13 05:57:39;;;;;;;4.20;1.50;;;;;;;16.32;70.48;100469.19;5057291;28;20032;-78
2022/08/13 06:05:37;;;;;;;2.65;1.35;;;;;;;16.37;70.77;100470.28;5032645;28;19913;-79
2022/08/13 06:08:07;;;;;;;3.40;1.60;;;;;;;16.42;70.90;100455.59;4996662;28;20095;-78
2022/08/13 06:10:33;;;;;;;3.88;1.30;;;;;;;16.48;70.96;100455.66;5054372;28;20037;-77
2022/08/13 06:12:59;;;;;;;4.53;1.70;;;;;;;16.56;70.81;100467.28;5057823;28;20042;-79
2022/08/13 06:15:26;;;;;;;2.90;1.33;;;;;;;16.67;70.77;100468.66;5001578;28;20396;-78
2022/08/13 06:17:52;;;;;;;2.65;1.63;;;;;;;16.80;70.45;100462.66;5029882;28;20117;-79
2022/08/13 06:20:20;;;;;;;4.80;1.30;;;;;;;16.82;70.52;100463.28;5061116;28;20044;-79
2022/08/13 06:22:52;;;;;;;1.98;1.38;;;;;;;16.84;70.85;100463.94;5023893;28;20108;-78
2022/08/13 06:25:19;;;;;;;2.95;1.27;;;;;;;16.82;71.01;100466.81;5029841;28;20026;-78
2022/08/13 06:27:44;;;;;;;4.15;1.48;;;;;;;16.86;71.22;100467.25;5021378;28;20022;-78
2022/08/13 06:30:13;;;;;;;3.03;1.23;;;;;;;16.91;71.37;100470.22;5060015;28;20037;-78
2022/08/13 06:32:42;;;;;;;2.75;1.30;;;;;;;16.95;71.52;100455.47;5053421;28;20129;-78
2022/08/13 06:35:08;;;;;;;1.92;1.50;;;;;;;17.01;71.48;100461.09;5044801;28;20526;-78
2022/08/13 06:37:34;;;;;;;2.50;1.70;;;;;;;17.06;71.79;100464.00;5022381;28;20034;-79
2022/08/13 06:40:01;;;;;;;2.58;1.65;;;;;;;17.11;71.66;100457.13;5035227;28;20030;-78
2022/08/13 06:42:30;;;;;;;1.45;1.10;;;;;;;17.19;71.51;100460.69;5057348;28;20033;-79
2022/08/13 06:44:58;;;;;;;5.55;1.50;;;;;;;17.25;71.61;100457.28;5043661;28;20108;-78
2022/08/13 06:47:29;;;;;;;1.65;1.45;;;;;;;17.30;71.98;100452.19;5009970;28;20035;-80
2022/08/13 06:49:55;;;;;;;3.55;1.33;;;;;;;17.33;72.02;100446.47;5028307;28;20033;-80
2022/08/13 06:52:20;;;;;;;1.88;1.20;;;;;;;17.41;72.08;100450.03;5046698;28;20095;-79
2022/08/13 06:54:47;;;;;;;2.90;1.42;;;;;;;17.46;72.27;100450.28;5041015;28;20040;-78
2022/08/13 06:57:14;;;;;;;4.45;1.45;;;;;;;17.56;72.18;100447.31;5044640;28;20399;-79
2022/08/13 06:59:41;;;;;;;2.05;1.48;;;;;;;17.60;72.35;100445.91;5039385;28;20135;-79
2022/08/13 07:02:13;;;;;;;5.47;1.50;;;;;;;17.66;72.24;100445.13;5045245;28;20109;-80
2022/08/13 07:04:46;;;;;;;2.97;1.50;;;;;;;17.75;72.41;100442.34;5032979;28;20052;-79
2022/08/13 07:07:12;;;;;;;2.83;1.58;;;;;;;17.82;72.54;100440.56;5059036;28;20558;-77
2022/08/13 07:09:37;;;;;;;6.10;1.50;;;;;;;17.88;72.50;100431.78;5038337;28;20132;-78
2022/08/13 07:12:04;;;;;;;2.65;1.52;;;;;;;17.97;72.29;100443.16;5047635;28;20041;-78
2022/08/13 07:14:29;;;;;;;1.65;1.30;;;;;;;18.03;72.19;100439.69;5047095;28;20399;-76
2022/08/13 07:16:58;;;;;;;1.67;1.50;;;;;;;18.15;71.89;100441.88;5064232;28;20037;-77
2022/08/13 07:19:24;;;;;;;1.73;1.40;;;;;;;18.24;71.70;100438.03;5035356;28;20041;-79
2022/08/13 07:21:50;;;;;;;2.25;1.35;;;;;;;18.38;71.55;100441.59;5037724;28;20042;-78
2022/08/13 07:24:15;;;;;;;2.42;1.60;;;;;;;18.52;71.29;100441.69;5047177;28;20033;-78
2022/08/13 07:26:42;;;;;;;2.30;1.17;;;;;;;18.63;71.40;100440.31;5042662;28;20029;-78
2022/08/13 07:29:08;;;;;;;2.72;1.50;;;;;;;18.87;71.42;100441.66;5065139;28;20025;-78
2022/08/13 07:31:42;;;;;;;2.13;1.30;;;;;;;19.13;70.55;100442.00;5046890;28;20044;-79
2022/08/13 07:34:09;;;;;;;2.42;1.45;;;;;;;19.28;69.98;100439.97;5041807;28;20034;-78
2022/08/13 07:36:38;;;;;;;2.20;1.40;;;;;;;19.53;69.43;100439.38;5024855;28;20950;-79
2022/08/13 07:39:09;;;;;;;2.42;1.60;;;;;;;19.64;68.87;100434.44;5044869;28;20038;-76
2022/08/13 07:41:40;;;;;;;2.05;1.60;;;;;;;19.69;68.45;100437.34;5027628;28;20127;-80
2022/08/13 07:44:10;;;;;;;7.15;1.55;;;;;;;19.81;68.13;100433.00;5022834;28;20045;-78
2022/08/13 07:46:44;;;;;;;4.88;1.50;;;;;;;19.90;67.98;100439.00;5036607;28;20041;-78
2022/08/13 07:49:12;;;;;;;6.15;1.80;;;;;;;20.00;67.48;100435.06;5030259;28;20487;-79
2022/08/13 07:51:41;;;;;;;6.50;2.00;;;;;;;20.08;67.07;100433.03;5039130;28;20476;-79
2022/08/13 07:54:07;;;;;;;3.28;2.10;;;;;;;20.16;66.90;100434.66;5027330;28;20097;-81
2022/08/13 07:56:33;;;;;;;3.53;1.85;;;;;;;20.26;66.50;100433.44;5029865;28;20034;-80
2022/08/13 07:59:01;;;;;;;5.85;2.17;;;;;;;20.37;66.34;100440.00;5035333;28;20132;-79
2022/08/13 08:01:30;;;;;;;4.88;2.00;;;;;;;20.44;66.07;100436.28;5032343;28;20049;-79
2022/08/13 08:03:58;;;;;;;5.50;2.15;;;;;;;20.53;66.18;100439.53;5025790;28;20045;-78
2022/08/13 08:06:25;;;;;;;10.65;2.03;;;;;;;20.59;66.28;100443.25;5017847;28;20064;-78
2022/08/13 08:08:54;;;;;;;3.30;2.00;;;;;;;20.57;66.24;100446.16;5027355;28;20479;-79
2022/08/13 08:14:10;;;;;;;4.10;1.98;;;;;;;20.40;66.58;100439.59;5021078;28;20041;-80
2022/08/13 08:16:36;;;;;;;3.15;2.30;;;;;;;20.45;66.31;100440.59;5040758;28;20054;-84
2022/08/13 08:19:03;;;;;;;4.80;2.28;;;;;;;20.48;66.31;100442.03;5023870;28;20030;-79
2022/08/13 08:21:30;;;;;;;6.32;2.78;;;;;;;20.54;66.20;100440.38;5032405;28;20415;-80
2022/08/13 08:24:01;;;;;;;4.68;2.42;;;;;;;20.59;66.18;100443.25;5042427;28;20046;-79
2022/08/13 08:26:30;;;;;;;4.63;2.60;;;;;;;20.61;66.02;100438.50;5027699;28;20155;-82
2022/08/13 08:29:00;;;;;;;8.25;2.83;;;;;;;20.64;66.04;100440.75;5042197;28;20507;-80
2022/08/13 08:31:26;;;;;;;6.05;2.53;;;;;;;20.68;66.32;100441.16;5043950;28;20033;-81
2022/08/13 08:33:57;;;;;;;6.97;2.60;;;;;;;20.79;66.47;100448.56;5032373;28;20030;-80
2022/08/13 08:36:28;;;;;;;4.22;2.47;;;;;;;20.75;66.56;100438.44;5002605;28;20041;-80
2022/08/13 08:44:32;;;;;;;9.65;2.90;;;;;;;21.02;66.07;100449.13;5031603;28;20036;-80
2022/08/13 08:46:59;;;;;;;7.50;2.40;;;;;;;21.10;65.96;100440.81;5011924;28;20054;-80
2022/08/13 08:49:26;;;;;;;6.65;2.28;;;;;;;21.20;66.16;100440.31;5010639;28;20034;-83
2022/08/13 08:51:53;;;;;;;7.80;2.58;;;;;;;21.25;65.70;100437.81;5031963;28;20040;-78
2022/08/13 08:54:21;;;;;;;8.20;2.60;;;;;;;21.33;65.72;100444.81;5012126;28;20045;-77
2022/08/13 08:56:54;;;;;;;5.28;3.05;;;;;;;21.33;65.55;100434.06;5033224;28;20033;-79
2022/08/13 08:59:28;;;;;;;4.95;2.58;;;;;;;21.27;65.76;100437.59;5024155;28;20061;-78
2022/08/13 09:01:55;;;;;;;5.60;2.70;;;;;;;21.26;66.09;100436.78;5041605;28;20549;-80
2022/08/13 09:04:25;;;;;;;5.28;2.70;;;;;;;21.36;66.08;100433.63;5012759;28;20095;-83
2022/08/13 09:06:58;;;;;;;5.47;2.97;;;;;;;21.46;65.50;100432.31;5082966;22;20082;-79
2022/08/13 09:09:26;;;;;;;5.85;2.40;;;;;;;21.54;65.10;100430.19;5063793;28;20031;-80
2022/08/13 09:11:55;;;;;;;2.97;2.50;;;;;;;21.63;65.14;100441.50;5069766;28;21414;-81
2022/08/13 09:14:31;;;;;;;5.30;2.67;;;;;;;21.74;64.71;100431.88;5073977;28;20032;-82
2022/08/13 09:16:59;;;;;;;5.18;2.42;;;;;;;21.83;65.10;100435.19;5059260;28;20408;-79
2022/08/13 09:19:27;;;;;;;5.03;2.50;;;;;;;21.89;64.71;100433.47;5065536;28;20047;-80
2022/08/13 09:21:52;;;;;;;7.93;2.60;;;;;;;21.75;64.80;100432.72;5058026;28;20030;-79
2022/08/13 09:24:21;;;;;;;6.97;2.47;;;;;;;21.72;65.19;100435.84;5084371;28;20033;-80
2022/08/13 09:26:48;;;;;;;11.32;2.95;;;;;;;21.77;65.39;100430.69;5055699;28;20036;-83
2022/08/13 09:29:18;;;;;;;4.90;2.60;;;;;;;21.89;64.98;100420.84;5059484;28;20129;-80
2022/08/13 09:31:47;;;;;;;3.17;2.13;;;;;;;21.89;64.56;100433.47;5033443;28;20686;-80
2022/08/13 09:34:14;;;;;;;4.30;2.55;;;;;;;21.89;64.79;100426.22;5056304;28;20402;-79
2022/08/13 09:36:41;;;;;;;6.63;2.40;;;;;;;21.90;64.51;100419.78;5069056;28;20032;-80
2022/08/13 09:39:07;;;;;;;6.00;2.50;;;;;;;21.91;64.08;100423.31;5069930;28;20059;-80
2022/08/13 09:41:50;;;;;;;5.07;2.40;;;;;;;21.97;64.35;100421.59;5055391;28;20482;-80
2022/08/13 09:44:17;;;;;;;4.35;2.30;;;;;;;22.05;64.40;100421.31;5080180;28;20032;-79
2022/08/13 09:46:43;;;;;;;3.90;2.33;;;;;;;22.16;64.23;100420.59;5049809;28;20031;-78
2022/08/13 09:49:11;;;;;;;6.63;2.95;;;;;;;22.35;63.93;100423.28;5067471;28;20028;-85
2022/08/13 09:51:37;;;;;;;5.78;2.50;;;;;;;22.47;63.30;100425.25;5049631;28;20465;-81
2022/08/13 09:54:09;;;;;;;3.60;2.42;;;;;;;22.45;63.20;100417.38;5088769;28;20036;-79
2022/08/13 09:56:38;;;;;;;3.00;2.42;;;;;;;22.54;63.10;100412.50;5055570;28;20035;-79
2022/08/13 09:59:05;;;;;;;10.98;2.60;;;;;;;22.70;62.76;100415.66;5049044;28;20903;-78
2022/08/13 10:01:33;;;;;;;5.53;2.72;;;;;;;22.86;62.38;100420.44;5026719;28;20130;-78
2022/08/13 10:03:58;;;;;;;3.67;2.20;;;;;;;22.91;62.13;100411.69;5054212;28;20044;-80
2022/08/13 10:06:28;;;;;;;4.38;2.35;;;;;;;23.04;62.22;100408.81;5062007;28;20118;-78
2022/08/13 10:08:54;;;;;;;11.45;3.08;;;;;;;23.05;62.18;100404.22;5030006;28;20090;-78
2022/08/13 10:11:22;;;;;;;10.68;2.88;;;;;;;23.15;62.29;100406.38;5041081;28;20436;-79
2022/08/13 10:13:49;;;;;;;4.78;2.25;;;;;;;23.22;62.10;100403.59;5066790;28;20402;-78
2022/08/13 10:16:14;;;;;;;5.43;3.00;;;;;;;23.29;61.82;100401.59;5059266;28;20119;-79
2022/08/13 10:18:41;;;;;;;3.25;2.25;;;;;;;23.34;61.53;100388.25;5046440;28;20143;-79
2022/08/13 10:21:10;;;;;;;3.55;2.17;;;;;;;23.54;61.13;100390.66;5051326;28;20028;-79
2022/08/13 10:23:36;;;;;;;4.78;2.28;;;;;;;23.61;60.49;100393.25;5058728;28;20057;-79
2022/08/13 10:26:02;;;;;;;5.45;2.33;;;;;;;23.63;60.39;100393.84;5067505;28;20082;-81
2022/08/13 10:28:34;;;;;;;6.80;2.50;;;;;;;23.80;60.35;100393.13;5060998;28;20032;-80
2022/08/13 10:31:02;;;;;;;8.48;2.42;;;;;;;23.91;60.15;100386.09;5060140;28;20129;-77
2022/08/13 10:33:28;;;;;;;7.63;2.25;;;;;;;23.97;59.46;100384.34;5044202;28;20032;-79
2022/08/13 10:35:55;;;;;;;4.68;2.28;;;;;;;24.01;59.47;100385.50;5057923;28;20102;-81
2022/08/13 10:38:26;;;;;;;4.47;2.08;;;;;;;24.15;58.86;100391.50;5043825;28;20033;-80
2022/08/13 10:40:53;;;;;;;9.00;2.38;;;;;;;24.30;58.26;100387.50;5043234;28;20037;-82
2022/08/13 10:43:21;;;;;;;7.05;2.20;;;;;;;24.47;57.54;100383.00;5025554;28;20040;-79
2022/08/13 10:45:48;;;;;;;5.20;2.20;;;;;;;24.51;57.05;100372.53;5066621;28;20085;-77
2022/08/13 10:48:14;;;;;;;5.35;2.10;;;;;;;24.59;57.11;100368.63;5065519;28;20051;-77
2022/08/13 10:50:41;;;;;;;8.95;2.20;;;;;;;24.71;56.91;100379.38;5048845;28;20169;-82
2022/08/13 10:53:07;;;;;;;7.38;2.53;;;;;;;24.84;56.53;100376.41;5045122;28;20055;-81
2022/08/13 10:55:35;;;;;;;6.65;2.58;;;;;;;24.93;55.80;100367.91;5068932;28;20029;-78
2022/08/13 10:58:03;;;;;;;5.07;2.60;;;;;;;24.96;55.54;100373.66;5071302;28;20050;-79
2022/08/13 11:00:30;;;;;;;5.35;2.28;;;;;;;25.01;54.80;100373.75;5084965;28;20087;-78
2022/08/13 11:02:55;;;;;;;5.22;1.90;;;;;;;25.08;54.81;100365.50;5061014;28;20025;-78
2022/08/13 11:05:25;;;;;;;5.05;2.47;;;;;;;25.21;54.59;100372.47;5066147;28;20076;-79
2022/08/13 11:07:53;;;;;;;4.82;2.45;;;;;;;25.23;54.20;100366.81;5052977;28;20025;-79
2022/08/13 11:10:20;;;;;;;11.13;2.40;;;;;;;25.33;53.85;100361.59;5068634;28;20390;-81
2022/08/13 11:12:50;;;;;;;5.55;2.10;;;;;;;25.42;53.33;100364.69;5071323;28;20101;-78
2022/08/13 11:15:22;;;;;;;10.73;2.40;;;;;;;25.51;52.91;100363.19;5052323;28;20428;-79
2022/08/13 11:17:50;;;;;;;7.97;2.22;;;;;;;25.67;52.58;100360.78;5048862;28;20036;-79
2022/08/13 11:20:19;;;;;;;6.50;2.75;;;;;;;25.86;52.12;100355.91;5059186;28;20039;-80
2022/08/13 11:22:53;;;;;;;7.22;2.17;;;;;;;26.00;51.89;100350.94;5036738;28;20028;-79
2022/08/13 11:25:20;;;;;;;5.82;2.28;;;;;;;26.07;51.93;100350.75;5047900;28;20036;-83
2022/08/13 11:27:46;;;;;;;2.95;1.83;;;;;;;26.13;51.49;100347.06;5051223;28;20033;-77
2022/08/13 11:30:14;;;;;;;3.72;2.25;;;;;;;26.14;51.31;100347.84;5066307;28;20491;-79
2022/08/13 11:32:40;;;;;;;5.22;2.30;;;;;;;26.16;51.84;100347.59;5082140;28;20029;-78
2022/08/13 11:35:08;;;;;;;3.63;1.98;;;;;;;26.13;51.95;100340.81;5061116;28;20035;-79
2022/08/13 11:37:34;;;;;;;7.35;2.20;;;;;;;26.09;52.44;100337.78;5060690;28;20398;-78
2022/08/13 11:40:03;;;;;;;5.55;2.33;;;;;;;26.10;52.66;100335.91;5051166;28;20449;-79
2022/08/13 11:42:31;;;;;;;4.18;2.45;;;;;;;26.09;52.78;100336.94;5055142;28;20043;-77
2022/08/13 11:44:57;;;;;;;3.83;2.03;;;;;;;26.07;52.81;100336.41;5070555;28;20032;-78
2022/08/13 11:47:24;;;;;;;9.60;2.40;;;;;;;26.08;52.93;100335.31;5049519;28;20025;-79
2022/08/13 11:49:50;;;;;;;4.00;2.15;;;;;;;26.13;52.92;100336.22;5029782;28;20663;-79
2022/08/13 11:52:16;;;;;;;6.82;2.00;;;;;;;26.26;52.07;100334.19;5066187;28;20041;-78
2022/08/13 11:54:41;;;;;;;11.35;2.10;;;;;;;26.28;51.80;100331.25;5053253;28;20039;-81
2022/08/13 11:57:07;;;;;;;4.50;2.00;;;;;;;26.45;51.82;100333.91;5066629;28;20029;-80